createdAt,value
2022-09-10T00:00:13.073Z,6.38
2022-09-10T00:02:40.045Z,5.57
2022-09-10T00:05:07.544Z,6.22
2022-09-10T00:07:34.256Z,6.97
2022-09-10T00:10:00.985Z,6.35
2022-09-10T00:12:27.705Z,6.80
2022-09-10T00:14:54.518Z,6.07
2022-09-10T00:17:21.304Z,5.30
2022-09-10T00:19:47.993Z,5.55
2022-09-10T00:22:14.969Z,6.13
2022-09-10T00:24:41.777Z,6.40
2022-09-10T00:27:09.190Z,5.95
2022-09-10T00:29:35.876Z,5.95
2022-09-10T00:32:04.316Z,5.80
2022-09-10T00:34:31.093Z,5.55
2022-09-10T00:36:59.344Z,6.05
2022-09-10T00:39:26.106Z,5.68
2022-09-10T00:41:55.110Z,4.97
2022-09-10T00:44:39.962Z,5.53
2022-09-10T00:47:11.373Z,5.80
2022-09-10T00:49:46.508Z,4.70
2022-09-10T00:52:13.983Z,5.25
2022-09-10T00:54:43.513Z,5.15
2022-09-10T00:57:14.902Z,5.10
2022-09-10T00:59:46.620Z,5.32
2022-09-10T01:02:14.953Z,5.55
2022-09-10T01:04:42.968Z,5.15
2022-09-10T01:07:11.263Z,5.45
2022-09-10T01:09:39.785Z,5.35
2022-09-10T01:12:33.149Z,5.53
2022-09-10T01:15:28.857Z,6.43
2022-09-10T01:18:32.820Z,5.47
2022-09-10T01:21:20.482Z,5.15
2022-09-10T01:24:26.264Z,5.85
2022-09-10T01:27:31.445Z,5.72
2022-09-10T01:30:09.528Z,5.00
2022-09-10T01:32:54.864Z,5.00
2022-09-10T01:35:36.499Z,5.32
2022-09-10T01:38:11.437Z,5.00
2022-09-10T01:40:38.699Z,5.10
2022-09-10T01:43:08.449Z,4.30
2022-09-10T01:46:05.487Z,4.68
2022-09-10T01:48:54.685Z,4.40
2022-09-10T01:51:43.405Z,4.47
2022-09-10T01:54:26.340Z,4.57
2022-09-10T01:57:08.062Z,4.32
2022-09-10T02:00:08.805Z,4.00
2022-09-10T02:02:48.550Z,3.97
2022-09-10T02:05:18.672Z,4.22
2022-09-10T02:07:46.609Z,3.60
2022-09-10T02:10:13.292Z,4.57
2022-09-10T02:12:40.141Z,3.97
2022-09-10T02:15:08.567Z,3.78
2022-09-10T02:17:37.858Z,3.78
2022-09-10T02:20:08.556Z,3.65
2022-09-10T02:22:36.818Z,3.45
2022-09-10T02:25:04.717Z,2.97
2022-09-10T02:27:32.959Z,3.28
2022-09-10T02:29:59.634Z,2.75
2022-09-10T02:32:26.351Z,2.78
2022-09-10T02:34:53.049Z,2.47
2022-09-10T02:37:20.217Z,2.50
2022-09-10T02:39:46.991Z,2.88
2022-09-10T02:42:16.969Z,2.40
2022-09-10T02:44:44.764Z,2.58
2022-09-10T02:47:11.683Z,2.63
2022-09-10T02:49:38.366Z,2.47
2022-09-10T02:52:05.234Z,2.60
2022-09-10T02:54:32.549Z,2.88
2022-09-10T02:56:59.336Z,2.40
2022-09-10T02:59:26.110Z,2.50
2022-09-10T03:01:54.491Z,2.40
2022-09-10T03:04:21.314Z,2.60
2022-09-10T03:06:49.468Z,2.60
2022-09-10T03:09:17.143Z,2.20
2022-09-10T03:11:43.825Z,2.50
2022-09-10T03:14:11.959Z,2.40
2022-09-10T03:16:40.189Z,2.60
2022-09-10T03:19:06.954Z,2.42
2022-09-10T03:21:34.424Z,2.70
2022-09-10T03:24:01.251Z,2.47
2022-09-10T03:26:27.948Z,2.55
2022-09-10T03:28:54.781Z,2.63
2022-09-10T03:31:21.819Z,2.30
2022-09-10T03:33:49.195Z,2.70
2022-09-10T03:36:15.990Z,2.60
2022-09-10T03:38:42.686Z,2.97
2022-09-10T03:41:09.865Z,2.83
2022-09-10T03:43:36.926Z,2.55
2022-09-10T03:46:04.021Z,2.47
2022-09-10T03:48:30.811Z,2.28
2022-09-10T03:50:57.552Z,2.05
2022-09-10T03:53:24.253Z,2.15
2022-09-10T03:55:51.871Z,2.08
2022-09-10T03:58:18.988Z,1.90
2022-09-10T04:00:46.637Z,2.50
2022-09-10T04:03:14.618Z,2.40
2022-09-10T04:05:45.089Z,2.50
2022-09-10T04:08:13.169Z,2.53
2022-09-10T04:10:40.961Z,2.40
2022-09-10T04:13:08.057Z,2.67
2022-09-10T04:15:35.049Z,2.47
2022-09-10T04:18:01.826Z,2.75
2022-09-10T04:20:28.676Z,2.60
2022-09-10T04:22:56.758Z,2.70
2022-09-10T04:25:23.657Z,2.65
2022-09-10T04:27:50.816Z,2.50
2022-09-10T04:30:18.319Z,2.35
2022-09-10T04:32:45.346Z,2.50
2022-09-10T04:35:15.384Z,2.50
2022-09-10T04:37:43.200Z,2.17
2022-09-10T04:40:10.612Z,2.55
2022-09-10T04:42:38.322Z,2.60
2022-09-10T04:45:06.224Z,2.30
2022-09-10T04:47:34.122Z,2.58
2022-09-10T04:50:01.094Z,2.35
2022-09-10T04:52:28.933Z,2.70
2022-09-10T04:54:55.648Z,2.55
2022-09-10T04:57:22.563Z,2.85
2022-09-10T04:59:49.246Z,2.80
2022-09-10T05:02:16.105Z,2.90
2022-09-10T05:04:43.380Z,3.53
2022-09-10T05:07:10.106Z,2.95
2022-09-10T05:09:36.856Z,3.22
2022-09-10T05:12:04.290Z,3.25
2022-09-10T05:14:30.985Z,3.50
2022-09-10T05:16:57.837Z,3.15
2022-09-10T05:19:24.534Z,2.63
2022-09-10T05:21:51.586Z,2.53
2022-09-10T05:24:18.328Z,2.38
2022-09-10T05:26:46.284Z,2.13
2022-09-10T05:29:14.005Z,2.08
2022-09-10T05:31:41.024Z,2.22
2022-09-10T05:34:08.942Z,1.90
2022-09-10T05:36:35.827Z,1.83
2022-09-10T05:39:05.676Z,1.60
2022-09-10T05:41:33.123Z,1.50
2022-09-10T05:43:59.981Z,1.45
2022-09-10T05:46:30.920Z,1.38
2022-09-10T05:48:58.153Z,1.40
2022-09-10T05:51:28.662Z,1.20
2022-09-10T05:53:55.553Z,1.17
2022-09-10T05:56:22.207Z,1.15
2022-09-10T05:58:49.732Z,1.20
2022-09-10T06:01:16.502Z,1.42
2022-09-10T06:03:43.170Z,1.10
2022-09-10T06:06:10.089Z,1.20
2022-09-10T06:08:37.068Z,1.23
2022-09-10T06:11:05.846Z,1.10
2022-09-10T06:13:33.966Z,1.00
2022-09-10T06:16:01.325Z,1.30
2022-09-10T06:18:28.678Z,1.05
2022-09-10T06:21:25.016Z,1.10
2022-09-10T06:23:54.729Z,1.30
2022-09-10T06:26:21.426Z,1.65
2022-09-10T06:28:49.856Z,1.60
2022-09-10T06:31:20.071Z,1.48
2022-09-10T06:33:49.022Z,1.52
2022-09-10T06:36:15.894Z,1.27
2022-09-10T06:38:45.054Z,1.30
2022-09-10T06:41:13.643Z,1.67
2022-09-10T06:43:41.393Z,1.70
2022-09-10T06:46:40.845Z,1.70
2022-09-10T06:49:03.682Z,1.40
2022-09-10T06:51:31.099Z,1.45
2022-09-10T06:53:57.885Z,2.00
2022-09-10T06:56:24.645Z,1.50
2022-09-10T06:58:51.754Z,1.50
2022-09-10T07:01:21.551Z,1.40
2022-09-10T07:03:48.491Z,1.75
2022-09-10T07:06:17.056Z,1.42
2022-09-10T07:08:44.226Z,1.75
2022-09-10T07:11:12.972Z,1.70
2022-09-10T07:13:42.251Z,1.80
2022-09-10T07:16:09.687Z,1.60
2022-09-10T07:18:36.748Z,1.92
2022-09-10T07:21:11.919Z,1.33
2022-09-10T07:23:41.867Z,1.10
2022-09-10T07:26:11.509Z,1.60
2022-09-10T07:28:39.813Z,1.50
2022-09-10T07:31:25.628Z,1.48
2022-09-10T07:33:52.864Z,1.25
2022-09-10T07:36:19.539Z,1.40
2022-09-10T07:38:46.477Z,1.10
2022-09-10T07:41:15.447Z,1.70
2022-09-10T07:43:43.811Z,1.30
2022-09-10T07:46:13.325Z,1.48
2022-09-10T07:48:41.578Z,1.50
2022-09-10T07:51:10.814Z,1.42
2022-09-10T07:53:38.623Z,1.27
2022-09-10T07:56:07.952Z,2.10
2022-09-10T07:58:36.000Z,1.50
2022-09-10T08:01:09.029Z,1.30
2022-09-10T08:03:35.777Z,1.55
2022-09-10T08:06:03.262Z,1.50
2022-09-10T08:08:34.876Z,1.58
2022-09-10T08:11:13.028Z,1.13
2022-09-10T08:13:46.176Z,1.40
2022-09-10T08:16:15.554Z,1.50
2022-09-10T08:18:46.955Z,1.30
2022-09-10T08:21:14.553Z,1.13
2022-09-10T08:23:41.657Z,1.08
2022-09-10T08:26:08.668Z,1.50
2022-09-10T08:28:36.314Z,1.15
2022-09-10T08:31:08.914Z,1.70
2022-09-10T08:33:39.863Z,1.17
2022-09-10T08:36:12.054Z,1.38
2022-09-10T08:38:40.210Z,1.10
2022-09-10T08:41:49.409Z,1.17
2022-09-10T08:44:25.275Z,1.60
2022-09-10T08:46:56.437Z,1.30
2022-09-10T08:49:42.237Z,0.98
2022-09-10T08:52:33.943Z,0.95
2022-09-10T08:55:23.422Z,1.20
2022-09-10T08:58:01.658Z,1.23
2022-09-10T09:00:33.419Z,1.50
2022-09-10T09:03:10.002Z,1.25
2022-09-10T09:06:00.880Z,1.40
2022-09-10T09:08:35.558Z,1.00
2022-09-10T09:11:20.439Z,1.13
2022-09-10T09:13:56.509Z,1.20
2022-09-10T09:16:26.325Z,1.27
2022-09-10T09:19:24.086Z,1.00
2022-09-10T09:21:56.153Z,0.90
2022-09-10T09:24:58.931Z,0.82
2022-09-10T09:27:30.088Z,0.70
2022-09-10T09:30:01.799Z,0.90
2022-09-10T09:32:33.901Z,1.00
2022-09-10T09:35:32.583Z,1.00
2022-09-10T09:38:08.167Z,0.93
2022-09-10T09:41:07.363Z,0.80
2022-09-10T09:43:52.812Z,0.90
2022-09-10T09:46:21.548Z,1.02
2022-09-10T09:48:53.731Z,0.73
2022-09-10T09:51:21.441Z,0.60
2022-09-10T09:54:00.976Z,0.80
2022-09-10T09:56:42.164Z,0.80
2022-09-10T09:59:21.860Z,0.85
2022-09-10T10:01:48.860Z,1.00
2022-09-10T10:04:24.688Z,1.08
2022-09-10T10:06:59.963Z,1.00
2022-09-10T10:09:28.981Z,0.52
2022-09-10T10:11:57.927Z,0.65
2022-09-10T10:14:35.310Z,1.23
2022-09-10T10:17:02.593Z,0.70
2022-09-10T10:19:29.337Z,0.52
2022-09-10T10:21:56.055Z,0.60
2022-09-10T10:24:33.835Z,0.52
2022-09-10T10:27:00.881Z,0.60
2022-09-10T10:29:28.487Z,0.50
2022-09-10T10:31:56.312Z,0.52
2022-09-10T10:34:35.538Z,0.70
2022-09-10T10:37:16.252Z,0.70
2022-09-10T10:40:03.354Z,0.68
2022-09-10T10:42:51.246Z,0.70
2022-09-10T10:45:36.610Z,0.95
2022-09-10T10:48:37.423Z,0.60
2022-09-10T10:51:07.343Z,0.60
2022-09-10T10:54:02.911Z,0.60
2022-09-10T10:56:42.699Z,0.60
2022-09-10T10:59:37.151Z,0.70
2022-09-10T11:02:20.461Z,0.52
2022-09-10T11:05:03.583Z,0.82
2022-09-10T11:07:39.455Z,0.73
2022-09-10T11:10:20.073Z,0.73
2022-09-10T11:13:23.947Z,0.50
2022-09-10T11:16:05.702Z,0.68
2022-09-10T11:18:43.877Z,0.77
2022-09-10T11:21:13.327Z,0.82
2022-09-10T11:23:46.326Z,0.70
2022-09-10T11:26:18.666Z,0.70
2022-09-10T11:29:43.942Z,0.60
2022-09-10T11:32:19.158Z,0.80
2022-09-10T11:35:08.518Z,0.77
2022-09-10T11:37:47.616Z,0.50
2022-09-10T11:40:27.739Z,0.77
2022-09-10T11:42:59.988Z,0.60
2022-09-10T11:45:53.682Z,0.80
2022-09-10T11:48:29.105Z,0.73
2022-09-10T11:51:10.707Z,0.70
2022-09-10T11:53:37.458Z,0.65
2022-09-10T11:56:10.275Z,0.65
2022-09-10T11:58:47.380Z,0.88
2022-09-10T12:01:49.933Z,0.82
2022-09-10T12:04:22.352Z,0.82
2022-09-10T12:07:04.375Z,1.00
2022-09-10T12:09:58.249Z,1.00
2022-09-10T12:12:42.478Z,1.20
2022-09-10T12:15:21.709Z,0.93
2022-09-10T12:17:54.464Z,1.17
2022-09-10T12:20:31.947Z,0.88
2022-09-10T12:22:59.753Z,1.00
2022-09-10T12:25:34.583Z,1.10
2022-09-10T12:28:06.439Z,1.00
2022-09-10T12:30:35.927Z,0.80
2022-09-10T12:33:17.464Z,0.90
2022-09-10T12:35:47.753Z,1.00
2022-09-10T12:38:48.826Z,1.17
2022-09-10T12:41:24.761Z,1.20
2022-09-10T12:44:01.376Z,0.90
2022-09-10T12:46:44.998Z,0.90
2022-09-10T12:49:16.610Z,1.15
2022-09-10T12:52:03.192Z,1.10
2022-09-10T12:54:53.742Z,1.00
2022-09-10T12:57:42.105Z,1.27
2022-09-10T13:00:17.975Z,1.23
2022-09-10T13:02:58.315Z,1.20
2022-09-10T13:05:48.247Z,1.08
2022-09-10T13:08:41.471Z,0.95
2022-09-10T13:11:23.775Z,1.00
2022-09-10T13:14:01.031Z,1.08
2022-09-10T13:16:27.993Z,1.20
2022-09-10T13:19:14.906Z,1.10
2022-09-10T13:21:44.332Z,1.10
2022-09-10T13:24:37.440Z,1.00
2022-09-10T13:27:34.687Z,1.10
2022-09-10T13:30:28.741Z,1.10
2022-09-10T13:33:04.401Z,1.00
2022-09-10T13:36:10.701Z,1.02
2022-09-10T13:39:09.737Z,1.00
2022-09-10T13:41:51.533Z,1.08
2022-09-10T13:44:40.258Z,0.95
2022-09-10T13:47:15.372Z,0.90
2022-09-10T13:50:25.499Z,1.00
2022-09-10T13:53:00.023Z,0.90
2022-09-10T13:55:30.458Z,1.00
2022-09-10T13:58:16.547Z,1.00
2022-09-10T14:00:53.746Z,2.03
2022-09-10T14:03:24.817Z,1.15
2022-09-10T14:06:05.149Z,1.10
2022-09-10T14:08:35.680Z,1.20
2022-09-10T14:11:16.456Z,1.05
2022-09-10T14:13:51.843Z,1.05
2022-09-10T14:16:28.312Z,1.10
2022-09-10T14:18:59.782Z,1.10
2022-09-10T14:21:27.530Z,1.10
2022-09-10T14:23:57.195Z,1.00
2022-09-10T14:26:30.184Z,1.08
2022-09-10T14:29:03.457Z,0.95
2022-09-10T14:31:37.551Z,1.30
2022-09-10T14:34:24.866Z,1.10
2022-09-10T14:36:51.665Z,1.50
2022-09-10T14:39:20.518Z,1.00
2022-09-10T14:41:48.286Z,0.93
2022-09-10T14:44:24.017Z,0.98
2022-09-10T14:46:54.200Z,1.10
2022-09-10T14:49:41.867Z,1.10
2022-09-10T14:52:11.823Z,1.20
2022-09-10T14:54:38.710Z,0.93
2022-09-10T14:57:14.737Z,1.15
2022-09-10T14:59:43.871Z,1.17
2022-09-10T15:02:13.622Z,1.10
2022-09-10T15:04:40.440Z,1.40
2022-09-10T15:07:10.128Z,1.30
2022-09-10T15:09:36.834Z,1.00
2022-09-10T15:12:13.548Z,1.13
2022-09-10T15:14:40.275Z,1.20
2022-09-10T15:17:06.970Z,1.00
2022-09-10T15:19:33.701Z,1.00
2022-09-10T15:22:00.548Z,1.20
2022-09-10T15:24:28.297Z,1.13
2022-09-10T15:26:56.416Z,0.80
2022-09-10T15:29:23.790Z,1.17
2022-09-10T15:31:51.717Z,1.00
2022-09-10T15:34:19.413Z,1.20
2022-09-10T15:36:47.488Z,1.42
2022-09-10T15:39:14.252Z,1.08
2022-09-10T15:41:42.551Z,1.20
2022-09-10T15:44:09.694Z,1.17
2022-09-10T15:46:39.952Z,1.25
2022-09-10T15:49:06.661Z,1.20
2022-09-10T15:51:33.380Z,1.10
2022-09-10T15:54:04.793Z,1.00
2022-09-10T15:56:32.655Z,1.13
2022-09-10T15:58:59.772Z,1.35
2022-09-10T16:01:30.991Z,1.30
2022-09-10T16:04:02.886Z,1.20
2022-09-10T16:06:33.434Z,1.30
2022-09-10T16:09:03.240Z,1.20
2022-09-10T16:11:32.309Z,1.08
2022-09-10T16:14:04.338Z,1.38
2022-09-10T16:16:32.255Z,1.30
2022-09-10T16:19:00.138Z,1.05
2022-09-10T16:21:29.644Z,2.47
2022-09-10T16:23:58.663Z,2.58
2022-09-10T16:26:28.660Z,1.60
2022-09-10T16:29:00.477Z,1.50
2022-09-10T16:31:36.284Z,1.52
2022-09-10T16:34:05.930Z,1.50
2022-09-10T16:36:34.599Z,1.30
2022-09-10T16:39:01.818Z,1.40
2022-09-10T16:41:29.298Z,1.50
2022-09-10T16:43:58.655Z,1.30
2022-09-10T16:46:26.792Z,1.30
2022-09-10T16:48:54.818Z,1.50
2022-09-10T16:51:24.325Z,2.42
2022-09-10T16:54:02.631Z,4.53
2022-09-10T16:56:34.178Z,4.85
2022-09-10T16:59:02.375Z,8.00
2022-09-10T17:01:29.708Z,7.18
2022-09-10T17:03:56.831Z,4.22
2022-09-10T17:06:25.794Z,2.78
2022-09-10T17:08:57.760Z,1.92
2022-09-10T17:11:26.397Z,1.80
2022-09-10T17:13:54.290Z,1.75
2022-09-10T17:16:21.007Z,1.67
2022-09-10T17:18:54.363Z,1.63
2022-09-10T17:21:21.047Z,1.63
2022-09-10T17:23:47.705Z,2.58
2022-09-10T17:26:14.443Z,1.45
2022-09-10T17:28:41.831Z,1.30
2022-09-10T17:31:08.646Z,1.77
2022-09-10T17:33:35.508Z,1.30
2022-09-10T17:36:03.915Z,1.38
2022-09-10T17:38:33.207Z,1.67
2022-09-10T17:41:03.320Z,1.38
2022-09-10T17:43:34.719Z,1.60
2022-09-10T17:46:06.097Z,1.50
2022-09-10T17:48:34.497Z,1.67
2022-09-10T17:51:01.902Z,1.60
2022-09-10T17:53:28.910Z,1.48
2022-09-10T17:56:01.243Z,2.00
2022-09-10T17:58:27.926Z,1.40
2022-09-10T18:00:58.894Z,2.08
2022-09-10T18:03:25.741Z,1.95
2022-09-10T18:05:52.805Z,1.90
2022-09-10T18:08:19.503Z,2.08
2022-09-10T18:10:46.689Z,2.10
2022-09-10T18:13:14.240Z,2.00
2022-09-10T18:15:46.459Z,2.20
2022-09-10T18:18:13.315Z,2.67
2022-09-10T18:20:39.986Z,7.75
2022-09-10T18:23:07.118Z,9.55
2022-09-10T18:25:33.892Z,9.60
2022-09-10T18:28:03.422Z,7.97
2022-09-10T18:30:30.752Z,5.40
2022-09-10T18:32:57.678Z,4.28
2022-09-10T18:35:24.423Z,3.17
2022-09-10T18:37:51.869Z,2.90
2022-09-10T18:40:19.627Z,2.90
2022-09-10T18:42:47.810Z,2.75
2022-09-10T18:45:15.039Z,2.92
2022-09-10T18:47:45.200Z,2.58
2022-09-10T18:50:13.344Z,2.78
2022-09-10T18:52:40.208Z,3.13
2022-09-10T18:55:07.241Z,3.10
2022-09-10T18:57:33.913Z,2.90
2022-09-10T19:00:02.871Z,3.00
2022-09-10T19:02:29.765Z,3.25
2022-09-10T19:05:12.517Z,4.13
2022-09-10T19:07:39.666Z,4.45
2022-09-10T19:10:07.487Z,4.25
2022-09-10T19:12:34.470Z,3.63
2022-09-10T19:15:01.155Z,3.45
2022-09-10T19:17:28.028Z,3.92
2022-09-10T19:19:54.687Z,4.10
2022-09-10T19:22:21.353Z,3.63
2022-09-10T19:24:55.060Z,3.78
2022-09-10T19:27:22.910Z,4.07
2022-09-10T19:29:50.167Z,4.20
2022-09-10T19:32:17.668Z,4.13
2022-09-10T19:34:44.465Z,3.20
2022-09-10T19:37:11.291Z,3.70
2022-09-10T19:39:38.513Z,3.92
2022-09-10T19:42:06.919Z,4.82
2022-09-10T19:44:33.830Z,7.35
2022-09-10T19:47:00.656Z,10.70
2022-09-10T19:49:27.575Z,13.70
2022-09-10T19:51:54.266Z,13.85
2022-09-10T19:54:22.792Z,11.02
2022-09-10T19:56:49.833Z,8.68
2022-09-10T19:59:16.965Z,7.95
2022-09-10T20:01:45.917Z,8.02
2022-09-10T20:04:14.087Z,7.82
2022-09-10T20:06:42.460Z,6.95
2022-09-10T20:09:12.629Z,7.05
2022-09-10T20:11:39.505Z,7.20
2022-09-10T20:14:11.255Z,7.03
2022-09-10T20:16:39.891Z,7.45
2022-09-10T20:19:07.797Z,8.57
2022-09-10T20:21:35.810Z,10.98
2022-09-10T20:24:02.687Z,12.65
2022-09-10T20:26:34.619Z,11.80
2022-09-10T20:29:03.993Z,11.27
2022-09-10T20:31:33.739Z,10.07
2022-09-10T20:34:03.560Z,10.25
2022-09-10T20:36:32.055Z,10.00
2022-09-10T20:38:59.097Z,9.38
2022-09-10T20:41:30.339Z,8.73
2022-09-10T20:43:59.012Z,9.77
2022-09-10T20:46:27.307Z,9.95
2022-09-10T20:48:55.022Z,9.15
2022-09-10T20:51:21.726Z,9.10
2022-09-10T20:53:48.507Z,9.38
2022-09-10T20:56:18.288Z,9.32
2022-09-10T20:58:46.343Z,8.55
2022-09-10T21:01:17.398Z,8.70
2022-09-10T21:03:44.863Z,8.55
2022-09-10T21:06:13.544Z,9.00
2022-09-10T21:08:42.152Z,8.85
2022-09-10T21:11:20.630Z,7.80
2022-09-10T21:13:50.380Z,8.45
2022-09-10T21:16:19.854Z,8.48
2022-09-10T21:18:53.605Z,10.40
2022-09-10T21:21:23.511Z,9.75
2022-09-10T21:23:52.352Z,9.30
2022-09-10T21:26:21.787Z,8.73
2022-09-10T21:28:51.226Z,9.07
2022-09-10T21:31:18.076Z,9.02
2022-09-10T21:33:46.173Z,9.02
2022-09-10T21:36:15.452Z,8.65
2022-09-10T21:38:46.413Z,8.95
2022-09-10T21:41:15.412Z,9.88
2022-09-10T21:43:43.840Z,9.70
2022-09-10T21:46:11.637Z,9.80
2022-09-10T21:48:39.964Z,10.02
2022-09-10T21:51:18.195Z,9.60
2022-09-10T21:53:45.587Z,9.95
2022-09-10T21:56:14.631Z,9.73
2022-09-10T21:58:43.439Z,9.63
2022-09-10T22:01:17.564Z,9.68
2022-09-10T22:03:47.188Z,8.90
2022-09-10T22:06:15.228Z,8.70
2022-09-10T22:08:43.901Z,9.13
2022-09-10T22:11:15.385Z,10.07
2022-09-10T22:13:43.658Z,9.63
2022-09-10T22:16:14.796Z,11.27
2022-09-10T22:18:42.107Z,10.75
2022-09-10T22:21:09.715Z,11.80
2022-09-10T22:23:38.395Z,13.15
2022-09-10T22:26:10.155Z,13.23
2022-09-10T22:28:38.351Z,13.30
2022-09-10T22:31:10.742Z,11.98
2022-09-10T22:33:38.865Z,12.10
2022-09-10T22:36:23.688Z,11.50
2022-09-10T22:39:01.689Z,11.75
2022-09-10T22:41:29.980Z,13.10
2022-09-10T22:43:57.142Z,12.20
2022-09-10T22:46:24.426Z,11.85
2022-09-10T22:48:51.226Z,12.68
2022-09-10T22:51:20.414Z,11.43
2022-09-10T22:53:48.178Z,12.10
2022-09-10T22:56:17.676Z,12.45
2022-09-10T22:58:45.666Z,11.75
2022-09-10T23:01:15.272Z,12.48
2022-09-10T23:03:43.275Z,13.68
2022-09-10T23:06:19.041Z,13.32
2022-09-10T23:08:48.406Z,12.13
2022-09-10T23:11:21.148Z,12.15
2022-09-10T23:13:54.004Z,13.30
2022-09-10T23:16:23.475Z,12.82
2022-09-10T23:18:54.788Z,12.63
2022-09-10T23:21:24.128Z,13.40
2022-09-10T23:23:53.650Z,12.88
2022-09-10T23:26:21.874Z,14.10
2022-09-10T23:28:49.302Z,13.35
2022-09-10T23:31:21.636Z,13.80
2022-09-10T23:33:55.390Z,13.13
2022-09-10T23:36:22.759Z,12.90
2022-09-10T23:38:49.616Z,12.75
2022-09-10T23:41:16.692Z,12.55
2022-09-10T23:43:44.513Z,11.85
2022-09-10T23:46:12.374Z,11.90
2022-09-10T23:48:39.540Z,12.77
2022-09-10T23:51:06.715Z,11.55
2022-09-10T23:53:33.784Z,11.20
2022-09-10T23:56:02.766Z,11.20
2022-09-10T23:58:29.949Z,11.27
